Time;durP1;ratioP1;P1;durP2;ratioP2;P2;SDS_P1;SDS_P2;PMS_P1;PMS_P2;Temp;Humidity;BMP_temperature;BMP_pressure;BME280_temperature;BME280_humidity;BME280_pressure;Samples;Min_cycle;Max_cycle;Signal;HPM_P1;HPM_P2
2023/03/25 00:00:32;;;;;;;6.68;4.03;;;;;;;;;;6262262;28;20555;-62
2023/03/25 00:03:53;;;;;;;6.85;3.55;;;;;;;;;;6266812;28;20147;-61
2023/03/25 00:06:54;;;;;;;6.38;3.45;;;;;;;;;;6262069;28;20492;-62
2023/03/25 00:09:55;;;;;;;6.40;3.67;;;;;;;;;;6262491;28;20102;-62
2023/03/25 00:12:57;;;;;;;7.22;3.90;;;;;;;;;;6258974;28;20160;-61
2023/03/25 00:15:58;;;;;;;7.65;4.40;;;;;;;;;;6262171;28;20053;-62
2023/03/25 00:19:01;;;;;;;8.32;5.18;;;;;;;;;;6259532;28;20076;-61
2023/03/25 00:22:01;;;;;;;10.50;5.43;;;;;;;;;;6259446;28;20412;-62
2023/03/25 00:25:02;;;;;;;11.15;5.28;;;;;;;;;;6266405;28;20439;-61
2023/03/25 00:28:03;;;;;;;10.25;5.25;;;;;;;;;;6264176;28;20522;-61
2023/03/25 00:31:11;;;;;;;8.70;5.65;;;;;;;;;;6263056;28;20057;-60
2023/03/25 00:34:13;;;;;;;9.55;5.72;;;;;;;;;;6266565;28;20069;-62
2023/03/25 00:37:20;;;;;;;;;;;;;;;;;;6261412;28;20998;-61
2023/03/25 00:40:20;;;;;;;9.43;5.60;;;;;;;;;;6265972;28;19932;-61
2023/03/25 00:43:21;;;;;;;10.60;6.32;;;;;;;;;;6266019;28;20122;-60
2023/03/25 00:46:25;;;;;;;9.82;5.90;;;;;;;;;;6262424;28;20431;-61
2023/03/25 00:49:27;;;;;;;10.80;6.15;;;;;;;;;;6260701;28;20047;-61
2023/03/25 00:52:28;;;;;;;11.52;5.70;;;;;;;;;;6262498;28;20407;-61
2023/03/25 00:55:28;;;;;;;10.98;5.93;;;;;;;;;;6264137;28;20045;-61
2023/03/25 00:58:29;;;;;;;9.90;6.07;;;;;;;;;;6260044;28;20048;-61
2023/03/25 01:01:30;;;;;;;10.13;5.75;;;;;;;;;;6260148;28;20511;-61
2023/03/25 01:04:30;;;;;;;8.70;5.13;;;;;;;;;;6259580;28;20132;-61
2023/03/25 01:07:31;;;;;;;9.75;5.82;;;;;;;;;;6260831;28;20128;-61
2023/03/25 01:10:34;;;;;;;8.60;5.32;;;;;;;;;;6260335;28;20524;-61
2023/03/25 01:13:35;;;;;;;9.40;6.03;;;;;;;;;;6261602;28;20044;-62
2023/03/25 01:16:36;;;;;;;9.30;5.93;;;;;;;;;;6262335;28;20055;-61
2023/03/25 01:19:37;;;;;;;9.85;5.72;;;;;;;;;;6261270;28;20381;-61
2023/03/25 01:22:37;;;;;;;9.30;6.13;;;;;;;;;;6259442;28;20041;-61
2023/03/25 01:25:38;;;;;;;10.20;6.10;;;;;;;;;;6264988;28;20075;-61
2023/03/25 01:28:40;;;;;;;11.00;6.38;;;;;;;;;;6267589;28;20102;-61
2023/03/25 01:31:41;;;;;;;;;;;;;;;;;;6268748;28;20059;-62
2023/03/25 01:34:42;;;;;;;14.98;9.40;;;;;;;;;;6269381;28;20315;-61
2023/03/25 01:37:43;;;;;;;15.80;10.50;;;;;;;;;;6268003;28;20055;-62
2023/03/25 01:40:47;;;;;;;14.70;9.43;;;;;;;;;;6269224;28;20048;-62
2023/03/25 01:44:23;;;;;;;16.48;8.85;;;;;;;;;;6269146;28;20052;-61
2023/03/25 01:47:25;;;;;;;13.70;8.68;;;;;;;;;;6233228;28;20567;-61
2023/03/25 01:50:28;;;;;;;12.57;7.45;;;;;;;;;;6266424;28;20056;-62
2023/03/25 01:53:29;;;;;;;;;;;;;;;;;;6264856;28;20041;-62
2023/03/25 01:56:36;;;;;;;10.88;6.70;;;;;;;;;;6265759;28;19924;-61
2023/03/25 01:59:37;;;;;;;10.50;5.97;;;;;;;;;;6267861;28;20067;-61
2023/03/25 02:02:39;;;;;;;10.43;5.85;;;;;;;;;;6269304;28;20045;-61
2023/03/25 02:05:57;;;;;;;10.53;5.20;;;;;;;;;;6263356;28;20486;-61
2023/03/25 02:09:03;;;;;;;7.45;4.70;;;;;;;;;;6265772;28;20544;-61
2023/03/25 02:12:04;;;;;;;8.25;4.43;;;;;;;;;;6266792;28;20465;-61
2023/03/25 02:15:07;;;;;;;7.82;4.22;;;;;;;;;;6271155;28;20060;-61
2023/03/25 02:18:26;;;;;;;9.30;4.10;;;;;;;;;;6264596;28;20496;-62
2023/03/25 02:21:57;;;;;;;8.00;4.07;;;;;;;;;;6265807;28;20444;-61
2023/03/25 02:25:04;;;;;;;8.95;3.92;;;;;;;;;;6262282;28;20041;-61
2023/03/25 02:28:24;;;;;;;8.27;4.22;;;;;;;;;;6262737;28;20099;-61
2023/03/25 02:31:48;;;;;;;7.57;3.80;;;;;;;;;;6260552;28;20483;-61
2023/03/25 02:34:58;;;;;;;11.18;4.32;;;;;;;;;;6262254;28;20067;-62
2023/03/25 02:38:06;;;;;;;8.55;3.65;;;;;;;;;;6257897;28;20059;-62
2023/03/25 02:41:27;;;;;;;8.60;3.50;;;;;;;;;;6261102;28;20094;-61
2023/03/25 02:44:47;;;;;;;5.70;2.92;;;;;;;;;;6258999;28;20049;-61
2023/03/25 02:47:54;;;;;;;7.32;3.22;;;;;;;;;;6263662;28;20040;-62
2023/03/25 02:50:57;;;;;;;6.57;3.30;;;;;;;;;;6263649;28;20048;-61
2023/03/25 02:54:03;;;;;;;6.50;2.60;;;;;;;;;;6264669;28;20045;-61
2023/03/25 02:57:06;;;;;;;6.68;3.17;;;;;;;;;;6266668;28;20403;-62
2023/03/25 03:00:14;;;;;;;7.50;3.53;;;;;;;;;;6267586;28;20565;-61
2023/03/25 03:03:14;;;;;;;7.97;2.85;;;;;;;;;;6264598;28;20041;-62
2023/03/25 03:06:17;;;;;;;7.53;3.40;;;;;;;;;;6267477;28;20068;-61
2023/03/25 03:09:33;;;;;;;7.57;3.30;;;;;;;;;;6264098;28;20061;-62
2023/03/25 03:12:55;;;;;;;7.53;3.08;;;;;;;;;;6263205;28;20630;-62
2023/03/25 03:16:23;;;;;;;7.30;3.10;;;;;;;;;;6268219;28;20045;-61
2023/03/25 03:19:37;;;;;;;9.15;3.40;;;;;;;;;;6263353;28;20557;-62
2023/03/25 03:22:51;;;;;;;8.50;3.30;;;;;;;;;;6262110;28;20049;-61
2023/03/25 03:26:01;;;;;;;7.05;2.80;;;;;;;;;;6260046;28;20051;-61
2023/03/25 03:29:05;;;;;;;6.65;2.95;;;;;;;;;;6258882;28;20045;-62
2023/03/25 03:32:12;;;;;;;7.07;3.75;;;;;;;;;;6256434;28;20090;-62
2023/03/25 03:35:18;;;;;;;7.07;3.22;;;;;;;;;;6258894;28;20503;-62
2023/03/25 03:38:24;;;;;;;6.78;3.47;;;;;;;;;;6257763;28;20045;-61
2023/03/25 03:41:28;;;;;;;10.38;4.22;;;;;;;;;;6258941;28;20060;-61
2023/03/25 03:44:33;;;;;;;8.73;3.03;;;;;;;;;;6258690;28;20052;-61
2023/03/25 03:47:42;;;;;;;7.50;3.20;;;;;;;;;;6262618;28;20481;-63
2023/03/25 03:50:55;;;;;;;6.55;3.50;;;;;;;;;;6263715;28;20116;-62
2023/03/25 03:54:05;;;;;;;7.68;3.30;;;;;;;;;;6261622;28;20052;-61
2023/03/25 03:57:21;;;;;;;6.50;3.40;;;;;;;;;;6262337;28;20052;-61
2023/03/25 04:00:30;;;;;;;9.90;3.88;;;;;;;;;;6260238;28;20102;-61
2023/03/25 04:03:38;;;;;;;10.00;4.25;;;;;;;;;;6261397;28;20055;-61
2023/03/25 04:06:45;;;;;;;11.07;7.25;;;;;;;;;;6265689;28;20098;-62
2023/03/25 04:10:07;;;;;;;12.00;6.95;;;;;;;;;;6261436;28;20143;-61
2023/03/25 04:13:12;;;;;;;9.83;4.40;;;;;;;;;;6262909;28;20049;-62
2023/03/25 04:16:13;;;;;;;7.80;3.92;;;;;;;;;;6267083;28;20140;-61
2023/03/25 04:19:17;;;;;;;5.68;3.20;;;;;;;;;;6262834;28;20045;-62
2023/03/25 04:22:19;;;;;;;7.20;3.65;;;;;;;;;;6265921;28;20059;-61
2023/03/25 04:25:20;;;;;;;8.43;3.53;;;;;;;;;;6266095;28;20056;-62
2023/03/25 04:28:22;;;;;;;9.37;3.67;;;;;;;;;;6259987;28;20084;-62
2023/03/25 04:31:24;;;;;;;;;;;;;;;;;;6261753;28;20055;-62
2023/03/25 04:34:26;;;;;;;8.80;4.88;;;;;;;;;;6260549;28;20482;-62
2023/03/25 04:37:27;;;;;;;9.40;5.28;;;;;;;;;;6260399;28;20051;-62
2023/03/25 04:40:28;;;;;;;10.87;5.20;;;;;;;;;;6265473;28;20041;-62
2023/03/25 04:43:28;;;;;;;8.20;4.63;;;;;;;;;;6262254;28;20334;-62
2023/03/25 04:46:29;;;;;;;10.45;5.15;;;;;;;;;;6261036;28;20138;-62
2023/03/25 04:49:30;;;;;;;7.43;3.70;;;;;;;;;;6259733;28;20045;-63
2023/03/25 04:52:32;;;;;;;8.05;3.83;;;;;;;;;;6260892;28;20049;-62
2023/03/25 04:55:33;;;;;;;8.93;4.27;;;;;;;;;;6261119;28;20404;-61
2023/03/25 04:58:35;;;;;;;8.30;4.68;;;;;;;;;;6264783;28;20306;-62
2023/03/25 05:01:40;;;;;;;10.07;5.28;;;;;;;;;;6264042;28;20049;-61
2023/03/25 05:04:41;;;;;;;7.72;4.22;;;;;;;;;;6260785;28;20419;-62
2023/03/25 05:07:44;;;;;;;7.45;3.33;;;;;;;;;;6258265;28;20041;-62
2023/03/25 05:10:44;;;;;;;7.28;3.30;;;;;;;;;;6258730;28;20412;-63
2023/03/25 05:13:45;;;;;;;7.30;3.80;;;;;;;;;;6261936;28;20036;-61
2023/03/25 05:16:46;;;;;;;7.72;4.00;;;;;;;;;;6260221;28;20049;-61
2023/03/25 05:19:46;;;;;;;9.25;4.10;;;;;;;;;;6252650;28;20408;-61
2023/03/25 05:22:47;;;;;;;9.63;5.35;;;;;;;;;;6255845;28;20136;-62
2023/03/25 05:25:49;;;;;;;9.27;4.80;;;;;;;;;;6265032;28;20045;-62
2023/03/25 05:28:50;;;;;;;10.55;4.85;;;;;;;;;;6261720;28;20049;-61
2023/03/25 05:31:50;;;;;;;10.63;5.20;;;;;;;;;;6261781;28;20504;-61
2023/03/25 05:34:52;;;;;;;7.63;4.57;;;;;;;;;;6264673;28;20141;-61
2023/03/25 05:37:52;;;;;;;10.52;4.82;;;;;;;;;;6264039;28;20052;-61
2023/03/25 05:40:53;;;;;;;10.98;5.25;;;;;;;;;;6262981;28;20102;-62
2023/03/25 05:43:54;;;;;;;10.80;5.13;;;;;;;;;;6263292;28;20409;-61
2023/03/25 05:46:54;;;;;;;11.60;5.40;;;;;;;;;;6259505;28;20080;-61
2023/03/25 05:49:55;;;;;;;10.50;5.55;;;;;;;;;;6258902;28;20049;-61
2023/03/25 05:52:56;;;;;;;12.32;5.43;;;;;;;;;;6264916;28;20045;-61
2023/03/25 05:55:57;;;;;;;11.13;5.20;;;;;;;;;;6261633;28;20045;-62
2023/03/25 05:58:57;;;;;;;9.45;5.38;;;;;;;;;;6257261;28;20648;-61
2023/03/25 06:01:58;;;;;;;9.55;5.13;;;;;;;;;;6259323;28;20045;-61
2023/03/25 06:04:58;;;;;;;11.02;5.63;;;;;;;;;;6256626;28;20113;-61
2023/03/25 06:08:00;;;;;;;11.05;5.50;;;;;;;;;;6254691;28;20034;-61
2023/03/25 06:11:01;;;;;;;11.80;6.15;;;;;;;;;;6262215;28;20055;-61
2023/03/25 06:14:01;;;;;;;11.38;5.88;;;;;;;;;;6263296;28;20041;-61
2023/03/25 06:17:02;;;;;;;10.57;6.10;;;;;;;;;;6265970;28;20059;-62
2023/03/25 06:20:11;;;;;;;11.25;5.85;;;;;;;;;;6257022;28;20898;-61
2023/03/25 06:23:12;;;;;;;12.35;6.07;;;;;;;;;;6262905;28;20051;-62
2023/03/25 06:26:13;;;;;;;10.63;5.63;;;;;;;;;;6265168;28;20400;-61
2023/03/25 06:29:13;;;;;;;11.85;6.47;;;;;;;;;;6265245;28;20457;-61
2023/03/25 06:32:15;;;;;;;14.63;6.32;;;;;;;;;;6267731;28;20044;-61
2023/03/25 06:35:18;;;;;;;13.57;7.03;;;;;;;;;;6265581;28;20053;-61
2023/03/25 06:38:22;;;;;;;12.68;6.72;;;;;;;;;;6265730;28;20091;-61
2023/03/25 06:41:24;;;;;;;15.32;7.22;;;;;;;;;;6263022;28;20048;-61
2023/03/25 06:44:26;;;;;;;14.53;7.60;;;;;;;;;;6264399;28;20443;-62
2023/03/25 06:47:26;;;;;;;17.85;15.32;;;;;;;;;;6265761;28;20407;-61
2023/03/25 06:50:27;;;;;;;27.27;24.50;;;;;;;;;;6262440;28;20045;-61
2023/03/25 06:53:28;;;;;;;13.68;10.88;;;;;;;;;;6263597;28;20056;-62
2023/03/25 06:56:28;;;;;;;17.00;8.90;;;;;;;;;;6262942;28;20133;-62
2023/03/25 06:59:29;;;;;;;13.23;7.85;;;;;;;;;;6261502;28;20090;-61
2023/03/25 07:02:30;;;;;;;17.20;9.45;;;;;;;;;;6263285;28;20118;-62
2023/03/25 07:05:31;;;;;;;14.98;9.27;;;;;;;;;;6263115;28;20118;-62
2023/03/25 07:08:32;;;;;;;17.90;10.15;;;;;;;;;;6262631;28;20137;-61
2023/03/25 07:11:33;;;;;;;19.27;11.55;;;;;;;;;;6265485;28;20052;-62
2023/03/25 07:14:34;;;;;;;16.30;10.27;;;;;;;;;;6268515;28;20098;-61
2023/03/25 07:17:35;;;;;;;17.88;10.50;;;;;;;;;;6261873;28;20044;-61
2023/03/25 07:20:35;;;;;;;15.82;10.10;;;;;;;;;;6262549;28;20060;-62
2023/03/25 07:23:36;;;;;;;15.77;10.30;;;;;;;;;;6262255;28;20048;-62
2023/03/25 07:26:36;;;;;;;15.60;9.75;;;;;;;;;;6262333;28;20069;-61
2023/03/25 07:29:37;;;;;;;14.27;8.45;;;;;;;;;;6265809;28;20052;-61
2023/03/25 07:32:38;;;;;;;15.50;10.55;;;;;;;;;;6263954;28;20049;-61
2023/03/25 07:35:39;;;;;;;12.50;8.07;;;;;;;;;;6264214;28;20132;-61
2023/03/25 07:38:39;;;;;;;15.85;8.20;;;;;;;;;;6260633;28;20202;-61
2023/03/25 07:41:41;;;;;;;13.20;7.70;;;;;;;;;;6266549;28;20118;-60
2023/03/25 07:44:42;;;;;;;11.32;7.47;;;;;;;;;;6263994;28;20095;-61
2023/03/25 07:47:48;;;;;;;11.60;6.80;;;;;;;;;;6268107;28;20127;-62
2023/03/25 07:50:51;;;;;;;11.05;6.60;;;;;;;;;;6266528;28;21024;-62
2023/03/25 07:53:52;;;;;;;12.30;6.32;;;;;;;;;;6264969;28;20085;-62
2023/03/25 07:56:53;;;;;;;11.07;5.85;;;;;;;;;;6268946;28;20055;-56
2023/03/25 07:59:54;;;;;;;11.55;5.80;;;;;;;;;;6267429;28;20101;-63
2023/03/25 08:02:55;;;;;;;9.88;5.72;;;;;;;;;;6259584;28;20052;-62
2023/03/25 08:05:59;;;;;;;12.45;4.95;;;;;;;;;;6267784;28;20106;-62
2023/03/25 08:09:00;;;;;;;8.43;4.60;;;;;;;;;;6266653;28;20728;-62
2023/03/25 08:12:01;;;;;;;12.38;5.07;;;;;;;;;;6268365;28;20048;-62
2023/03/25 08:15:02;;;;;;;9.02;4.68;;;;;;;;;;6266715;28;20041;-63
2023/03/25 08:18:05;;;;;;;8.63;4.57;;;;;;;;;;6266590;28;20041;-62
2023/03/25 08:21:05;;;;;;;;;;;;;;;;;;6268076;28;20140;-61
2023/03/25 08:24:06;;;;;;;10.40;4.90;;;;;;;;;;6267959;28;19928;-61
2023/03/25 08:27:06;;;;;;;7.70;4.32;;;;;;;;;;6267815;28;20124;-61
2023/03/25 08:30:09;;;;;;;13.13;4.60;;;;;;;;;;6267504;28;20119;-61
2023/03/25 08:33:09;;;;;;;14.55;4.80;;;;;;;;;;6267560;28;20407;-68
2023/03/25 08:36:13;;;;;;;9.38;4.38;;;;;;;;;;6267733;28;20124;-62
2023/03/25 08:39:16;;;;;;;8.90;4.47;;;;;;;;;;6266485;28;20083;-72
2023/03/25 08:42:17;;;;;;;11.13;4.68;;;;;;;;;;6264549;28;20090;-61
2023/03/25 08:45:17;;;;;;;8.40;4.28;;;;;;;;;;6258152;28;20053;-61
2023/03/25 08:48:18;;;;;;;9.50;4.88;;;;;;;;;;6262511;28;20052;-60
2023/03/25 08:51:19;;;;;;;10.32;4.90;;;;;;;;;;6264267;28;20049;-62
2023/03/25 08:54:20;;;;;;;7.82;4.55;;;;;;;;;;6261547;28;20041;-62
2023/03/25 08:57:20;;;;;;;8.70;5.05;;;;;;;;;;6259149;28;20048;-62
2023/03/25 09:00:23;;;;;;;10.25;5.15;;;;;;;;;;6256361;28;20045;-61
2023/03/25 09:03:25;;;;;;;9.43;5.30;;;;;;;;;;6257593;28;20498;-62
2023/03/25 09:06:26;;;;;;;8.15;5.22;;;;;;;;;;6259029;28;20044;-62
2023/03/25 09:09:28;;;;;;;10.60;5.57;;;;;;;;;;6256418;28;20049;-62
2023/03/25 09:12:29;;;;;;;9.73;5.03;;;;;;;;;;6257709;28;20057;-62
2023/03/25 09:15:30;;;;;;;10.10;5.28;;;;;;;;;;6259779;28;20527;-61
2023/03/25 09:18:31;;;;;;;8.15;4.90;;;;;;;;;;6257734;28;20037;-61
2023/03/25 09:21:31;;;;;;;9.23;5.35;;;;;;;;;;6257465;28;20131;-61
2023/03/25 09:24:32;;;;;;;8.10;4.63;;;;;;;;;;6258448;28;20065;-61
2023/03/25 09:27:33;;;;;;;11.68;5.32;;;;;;;;;;6259556;28;20049;-61
2023/03/25 09:30:34;;;;;;;9.23;4.70;;;;;;;;;;6260034;28;20049;-61
2023/03/25 09:33:36;;;;;;;10.27;5.80;;;;;;;;;;6264992;28;20477;-61
2023/03/25 09:36:36;;;;;;;11.57;5.85;;;;;;;;;;6264043;28;20037;-61
2023/03/25 09:39:37;;;;;;;8.73;4.97;;;;;;;;;;6259180;28;20099;-61
2023/03/25 09:42:57;;;;;;;8.00;4.65;;;;;;;;;;6261071;28;20079;-61
2023/03/25 09:45:58;;;;;;;8.50;5.15;;;;;;;;;;6264544;28;20060;-61
2023/03/25 09:49:00;;;;;;;10.10;5.13;;;;;;;;;;6265809;28;20049;-62
2023/03/25 09:52:00;;;;;;;7.88;4.90;;;;;;;;;;6271591;28;20072;-61
2023/03/25 09:55:06;;;;;;;7.65;4.60;;;;;;;;;;6268960;28;20493;-61
2023/03/25 09:58:43;;;;;;;7.63;4.35;;;;;;;;;;6264169;28;20476;-61
2023/03/25 10:02:01;;;;;;;10.32;5.35;;;;;;;;;;6261705;28;20055;-61
2023/03/25 10:05:07;;;;;;;7.80;4.43;;;;;;;;;;6262902;28;20060;-61
2023/03/25 10:08:32;;;;;;;7.13;4.40;;;;;;;;;;6266295;28;20409;-61
2023/03/25 10:12:10;;;;;;;9.25;4.68;;;;;;;;;;6264914;28;20049;-61
2023/03/25 10:15:20;;;;;;;6.40;3.58;;;;;;;;;;6263400;28;20423;-61
2023/03/25 10:18:39;;;;;;;7.97;3.70;;;;;;;;;;6263658;28;20049;-61
2023/03/25 10:21:54;;;;;;;12.32;4.15;;;;;;;;;;6262840;28;20564;-61
2023/03/25 10:25:12;;;;;;;6.07;2.90;;;;;;;;;;6261828;28;20056;-61
2023/03/25 10:28:18;;;;;;;6.18;2.35;;;;;;;;;;6266822;28;20049;-61
2023/03/25 10:31:22;;;;;;;6.00;2.22;;;;;;;;;;6264710;28;20047;-62
2023/03/25 10:34:32;;;;;;;6.45;2.83;;;;;;;;;;6264197;28;20052;-61
2023/03/25 10:37:35;;;;;;;6.90;2.60;;;;;;;;;;6264734;28;20139;-61
2023/03/25 10:40:38;;;;;;;4.63;2.38;;;;;;;;;;6259143;28;20719;-61
2023/03/25 10:43:41;;;;;;;5.90;2.70;;;;;;;;;;6263484;28;20049;-61
2023/03/25 10:46:50;;;;;;;7.53;3.55;;;;;;;;;;6271289;28;20590;-61
2023/03/25 10:49:52;;;;;;;7.00;3.75;;;;;;;;;;6264972;28;20049;-61
2023/03/25 10:52:55;;;;;;;8.77;3.95;;;;;;;;;;6265282;28;20441;-61
2023/03/25 10:56:03;;;;;;;6.53;4.10;;;;;;;;;;6262834;28;20084;-61
2023/03/25 10:59:16;;;;;;;7.00;4.10;;;;;;;;;;6262701;28;20502;-61
2023/03/25 11:02:19;;;;;;;7.75;3.80;;;;;;;;;;6259640;28;20079;-61
2023/03/25 11:05:23;;;;;;;10.13;3.65;;;;;;;;;;6261872;28;20486;-61
2023/03/25 11:08:24;;;;;;;9.63;4.20;;;;;;;;;;6262300;28;20044;-61
2023/03/25 11:11:32;;;;;;;8.40;3.72;;;;;;;;;;6263476;28;20243;-61
2023/03/25 11:14:38;;;;;;;6.15;3.50;;;;;;;;;;6266177;28;20480;-61
2023/03/25 11:17:40;;;;;;;5.82;3.50;;;;;;;;;;6262713;28;20045;-61
2023/03/25 11:20:55;;;;;;;8.30;3.70;;;;;;;;;;6262748;28;20048;-61
2023/03/25 11:23:58;;;;;;;8.50;3.25;;;;;;;;;;6261683;28;20048;-61
2023/03/25 11:27:00;;;;;;;6.40;2.50;;;;;;;;;;6268133;28;20056;-62
2023/03/25 11:30:06;;;;;;;8.07;2.75;;;;;;;;;;6262826;28;20249;-61
2023/03/25 11:33:13;;;;;;;4.65;2.20;;;;;;;;;;6264516;28;20072;-61
2023/03/25 11:36:15;;;;;;;5.53;2.70;;;;;;;;;;6265511;28;20045;-61
2023/03/25 11:39:16;;;;;;;4.65;2.35;;;;;;;;;;6262318;28;20140;-61
2023/03/25 11:42:31;;;;;;;4.80;2.00;;;;;;;;;;6262503;28;20049;-61
2023/03/25 11:45:37;;;;;;;4.28;1.73;;;;;;;;;;6260014;28;20566;-61
2023/03/25 11:48:40;;;;;;;3.88;1.67;;;;;;;;;;6263026;28;20060;-61
2023/03/25 11:51:41;;;;;;;3.63;1.70;;;;;;;;;;6263233;28;20102;-62
2023/03/25 11:54:43;;;;;;;3.72;1.60;;;;;;;;;;6260806;28;20373;-62
2023/03/25 11:57:45;;;;;;;4.90;1.60;;;;;;;;;;6260416;28;20049;-61
2023/03/25 12:00:48;;;;;;;3.42;1.48;;;;;;;;;;6259722;28;20546;-61
2023/03/25 12:03:50;;;;;;;5.38;1.58;;;;;;;;;;6260013;28;20048;-62
2023/03/25 12:06:56;;;;;;;;;;;;;;;;;;6263347;28;20057;-62
2023/03/25 12:10:04;;;;;;;3.35;1.40;;;;;;;;;;6263886;28;20324;-62
2023/03/25 12:13:20;;;;;;;4.05;1.90;;;;;;;;;;6262130;28;20454;-62
2023/03/25 12:16:30;;;;;;;3.45;1.33;;;;;;;;;;6260151;28;20511;-62
2023/03/25 12:20:02;;;;;;;5.47;1.70;;;;;;;;;;6259648;28;20055;-62
2023/03/25 12:23:12;;;;;;;4.63;1.67;;;;;;;;;;6264520;28;20423;-61
2023/03/25 12:26:16;;;;;;;3.42;1.60;;;;;;;;;;6261001;28;20066;-61
2023/03/25 12:29:30;;;;;;;7.65;2.33;;;;;;;;;;6260474;28;20397;-62
2023/03/25 12:32:49;;;;;;;7.07;2.03;;;;;;;;;;6260769;28;20041;-61
2023/03/25 12:36:11;;;;;;;5.63;2.15;;;;;;;;;;6259823;28;20049;-61
2023/03/25 12:40:08;;;;;;;4.30;1.83;;;;;;;;;;6263410;28;20053;-61
2023/03/25 12:43:14;;;;;;;5.25;2.25;;;;;;;;;;6187397;28;20141;-61
2023/03/25 12:46:53;;;;;;;5.82;2.50;;;;;;;;;;6264514;28;20048;-61
2023/03/25 12:50:04;;;;;;;5.63;2.28;;;;;;;;;;6261080;28;20048;-61
2023/03/25 12:53:25;;;;;;;5.05;2.25;;;;;;;;;;6261431;28;20045;-62
2023/03/25 12:56:48;;;;;;;3.65;2.08;;;;;;;;;;6264680;28;20048;-62
2023/03/25 13:00:12;;;;;;;6.03;2.25;;;;;;;;;;6264399;28;20053;-61
2023/03/25 13:03:35;;;;;;;5.07;2.20;;;;;;;;;;6261880;28;20049;-62
2023/03/25 13:06:42;;;;;;;5.05;3.20;;;;;;;;;;6260868;28;20053;-62
2023/03/25 13:09:59;;;;;;;5.03;2.35;;;;;;;;;;6266147;28;20056;-63
2023/03/25 13:13:12;;;;;;;4.43;2.00;;;;;;;;;;6262557;28;20060;-61
2023/03/25 13:16:17;;;;;;;7.13;2.50;;;;;;;;;;6258703;28;20420;-61
2023/03/25 13:19:23;;;;;;;5.50;2.05;;;;;;;;;;6260274;28;20393;-62
2023/03/25 13:22:30;;;;;;;5.03;2.47;;;;;;;;;;6268201;28;20036;-61
2023/03/25 13:25:58;;;;;;;4.80;2.50;;;;;;;;;;6268449;28;20045;-62
2023/03/25 13:29:02;;;;;;;6.47;2.20;;;;;;;;;;6264797;28;20119;-62
2023/03/25 13:32:10;;;;;;;4.05;2.10;;;;;;;;;;6266512;28;20041;-62
2023/03/25 13:35:40;;;;;;;5.03;2.45;;;;;;;;;;6266365;28;20103;-62
2023/03/25 13:38:50;;;;;;;4.10;2.15;;;;;;;;;;6262342;28;20481;-62
2023/03/25 13:42:13;;;;;;;4.75;2.80;;;;;;;;;;6267670;28;20143;-62
2023/03/25 13:45:23;;;;;;;5.03;2.55;;;;;;;;;;6265915;28;20420;-62
2023/03/25 13:48:48;;;;;;;4.70;2.58;;;;;;;;;;6266176;28;20489;-61
2023/03/25 13:51:48;;;;;;;4.68;2.80;;;;;;;;;;6267782;28;20175;-61
2023/03/25 13:54:55;;;;;;;5.28;2.83;;;;;;;;;;6269218;28;20044;-61
2023/03/25 13:58:07;;;;;;;6.53;3.15;;;;;;;;;;6265389;28;20506;-62
2023/03/25 14:01:20;;;;;;;7.20;3.10;;;;;;;;;;6265679;28;20567;-61
2023/03/25 14:04:28;;;;;;;7.28;3.20;;;;;;;;;;6266772;28;20056;-61
2023/03/25 14:08:07;;;;;;;6.20;2.80;;;;;;;;;;6262990;28;20051;-61
2023/03/25 14:11:27;;;;;;;7.38;3.13;;;;;;;;;;6263078;28;20041;-62
2023/03/25 14:14:32;;;;;;;8.32;3.00;;;;;;;;;;6268131;28;20048;-61
2023/03/25 14:17:35;;;;;;;5.43;2.72;;;;;;;;;;6265736;28;20053;-61
2023/03/25 14:20:36;;;;;;;;;;;;;;;;;;6271429;28;20051;-62
2023/03/25 14:23:37;;;;;;;3.83;1.60;;;;;;;;;;6264023;28;19925;-61
2023/03/25 14:26:43;;;;;;;5.03;1.73;;;;;;;;;;6261732;28;20065;-62
2023/03/25 14:30:21;;;;;;;5.75;1.60;;;;;;;;;;6246626;28;20055;-62
2023/03/25 14:33:23;;;;;;;4.20;1.67;;;;;;;;;;6253252;28;20095;-62
2023/03/25 14:36:38;;;;;;;3.57;1.43;;;;;;;;;;6254791;28;20069;-62
2023/03/25 14:39:39;;;;;;;5.57;1.70;;;;;;;;;;6250204;28;20671;-62
2023/03/25 14:43:00;;;;;;;5.65;1.65;;;;;;;;;;6248525;28;20057;-62
2023/03/25 14:46:04;;;;;;;4.10;1.40;;;;;;;;;;6256094;28;20517;-62
2023/03/25 14:49:07;;;;;;;4.13;1.30;;;;;;;;;;6254223;28;20412;-61
2023/03/25 14:52:14;;;;;;;4.07;1.50;;;;;;;;;;6257667;28;20103;-62
2023/03/25 14:55:33;;;;;;;3.85;1.40;;;;;;;;;;6258495;28;20049;-60
2023/03/25 14:58:37;;;;;;;4.32;1.67;;;;;;;;;;6251713;28;20055;-60
2023/03/25 15:01:41;;;;;;;3.33;1.33;;;;;;;;;;6256004;28;20064;-60
2023/03/25 15:04:43;;;;;;;3.45;1.50;;;;;;;;;;6252274;28;20052;-62
2023/03/25 15:07:53;;;;;;;4.13;1.35;;;;;;;;;;6255102;28;20488;-61
2023/03/25 15:11:07;;;;;;;4.38;1.63;;;;;;;;;;6257768;28;20052;-61
2023/03/25 15:14:14;;;;;;;4.72;1.63;;;;;;;;;;6256681;28;20056;-61
2023/03/25 15:17:46;;;;;;;5.70;1.58;;;;;;;;;;6256151;28;20052;-61
2023/03/25 15:20:46;;;;;;;4.93;1.52;;;;;;;;;;6258340;28;20541;-61
2023/03/25 15:24:11;;;;;;;4.22;1.60;;;;;;;;;;6258403;28;20071;-62
2023/03/25 15:27:26;;;;;;;5.53;1.67;;;;;;;;;;6248506;28;20059;-61
2023/03/25 15:31:19;;;;;;;3.90;1.70;;;;;;;;;;6245498;28;20060;-62
2023/03/25 15:34:31;;;;;;;4.40;2.17;;;;;;;;;;6222012;28;20565;-62
2023/03/25 15:37:36;;;;;;;5.65;2.08;;;;;;;;;;6254867;28;20055;-62
2023/03/25 15:41:01;;;;;;;5.07;1.90;;;;;;;;;;6258002;28;20130;-61
2023/03/25 15:44:10;;;;;;;5.15;2.00;;;;;;;;;;6257056;28;20506;-61
2023/03/25 15:47:23;;;;;;;4.60;1.83;;;;;;;;;;6256676;28;20041;-62
2023/03/25 15:50:42;;;;;;;4.22;1.95;;;;;;;;;;6257133;28;20048;-62
2023/03/25 15:54:16;;;;;;;3.40;1.48;;;;;;;;;;6256833;28;20053;-62
2023/03/25 15:57:24;;;;;;;4.07;1.58;;;;;;;;;;6255804;28;20064;-62
2023/03/25 16:00:28;;;;;;;3.42;1.50;;;;;;;;;;6255689;28;20052;-62
2023/03/25 16:03:31;;;;;;;4.43;1.70;;;;;;;;;;6257265;28;20523;-62
2023/03/25 16:06:38;;;;;;;5.00;1.70;;;;;;;;;;6256405;28;21342;-60
2023/03/25 16:09:44;;;;;;;5.07;1.80;;;;;;;;;;6252191;28;20479;-60
2023/03/25 16:12:48;;;;;;;4.20;1.77;;;;;;;;;;6256196;28;20045;-60
2023/03/25 16:15:52;;;;;;;6.70;2.42;;;;;;;;;;6257326;28;20053;-57
2023/03/25 16:18:54;;;;;;;5.03;2.13;;;;;;;;;;6253793;28;20051;-60
2023/03/25 16:22:00;;;;;;;6.30;2.30;;;;;;;;;;6256092;28;20385;-61
2023/03/25 16:25:05;;;;;;;4.72;2.10;;;;;;;;;;6256952;28;20091;-60
2023/03/25 16:28:15;;;;;;;5.90;2.20;;;;;;;;;;6254958;28;20559;-58
2023/03/25 16:31:35;;;;;;;4.65;2.00;;;;;;;;;;6254799;28;20163;-60
2023/03/25 16:34:39;;;;;;;5.60;2.40;;;;;;;;;;6255365;28;20060;-60
2023/03/25 16:37:40;;;;;;;6.25;2.60;;;;;;;;;;6254226;28;20710;-59
2023/03/25 16:40:45;;;;;;;6.13;2.25;;;;;;;;;;6255420;28;20076;-57
2023/03/25 16:43:46;;;;;;;7.10;2.28;;;;;;;;;;6255034;28;20052;-58
2023/03/25 16:46:48;;;;;;;5.90;2.25;;;;;;;;;;6256116;28;20128;-58
2023/03/25 16:49:51;;;;;;;6.72;2.17;;;;;;;;;;6253552;28;20049;-60
2023/03/25 16:52:52;;;;;;;6.38;2.60;;;;;;;;;;6254465;28;20052;-61
2023/03/25 16:56:03;;;;;;;4.80;2.20;;;;;;;;;;6256702;28;20685;-57
2023/03/25 16:59:15;;;;;;;5.15;2.08;;;;;;;;;;6251086;28;20100;-58
2023/03/25 17:02:26;;;;;;;8.23;2.60;;;;;;;;;;6250842;28;20048;-56
2023/03/25 17:05:28;;;;;;;5.07;2.08;;;;;;;;;;6249343;28;20056;-58
2023/03/25 17:08:29;;;;;;;5.57;2.10;;;;;;;;;;6248616;28;20053;-58
2023/03/25 17:11:31;;;;;;;8.43;2.83;;;;;;;;;;6251341;28;20163;-60
2023/03/25 17:14:37;;;;;;;;;;;;;;;;;;6247055;28;20049;-57
2023/03/25 17:17:46;;;;;;;5.35;2.50;;;;;;;;;;6249159;28;19929;-59
2023/03/25 17:20:47;;;;;;;5.72;2.60;;;;;;;;;;6249352;28;20070;-56
2023/03/25 17:23:49;;;;;;;;;;;;;;;;;;6251352;28;20086;-60
2023/03/25 17:26:55;;;;;;;6.60;2.92;;;;;;;;;;6250284;28;19933;-58
2023/03/25 17:29:58;;;;;;;5.75;2.40;;;;;;;;;;6249257;28;21187;-61
2023/03/25 17:33:18;;;;;;;5.63;2.38;;;;;;;;;;6252004;28;20167;-61
2023/03/25 17:36:20;;;;;;;5.70;2.35;;;;;;;;;;6250433;28;20049;-59
2023/03/25 17:39:26;;;;;;;5.53;2.33;;;;;;;;;;6247678;28;20164;-59
2023/03/25 17:42:31;;;;;;;6.47;2.78;;;;;;;;;;6250612;28;20041;-59
2023/03/25 17:45:31;;;;;;;5.63;3.03;;;;;;;;;;6251693;28;20045;-56
2023/03/25 17:48:32;;;;;;;8.60;3.65;;;;;;;;;;6247447;28;20144;-59
2023/03/25 17:51:32;;;;;;;7.70;3.58;;;;;;;;;;6252984;28;20064;-58
2023/03/25 17:54:34;;;;;;;9.45;4.63;;;;;;;;;;6250303;28;20052;-58
2023/03/25 17:57:36;;;;;;;13.23;5.90;;;;;;;;;;6248030;28;20052;-59
2023/03/25 18:00:37;;;;;;;8.73;4.18;;;;;;;;;;6250092;28;20049;-59
2023/03/25 18:03:39;;;;;;;8.63;4.15;;;;;;;;;;6250637;28;20057;-57
2023/03/25 18:06:40;;;;;;;10.65;4.40;;;;;;;;;;6257369;28;20057;-54
2023/03/25 18:09:40;;;;;;;10.30;4.55;;;;;;;;;;6258856;28;20497;-55
2023/03/25 18:12:42;;;;;;;10.82;3.83;;;;;;;;;;6262262;28;20527;-60
2023/03/25 18:15:42;;;;;;;7.05;3.63;;;;;;;;;;6260916;28;20052;-54
2023/03/25 18:18:43;;;;;;;8.70;3.33;;;;;;;;;;6259195;28;20045;-58
2023/03/25 18:21:44;;;;;;;7.00;3.08;;;;;;;;;;6261715;28;20045;-56
2023/03/25 18:24:45;;;;;;;8.50;4.17;;;;;;;;;;6261513;28;20045;-59
2023/03/25 18:27:52;;;;;;;14.23;8.13;;;;;;;;;;6258100;28;20063;-56
2023/03/25 18:30:55;;;;;;;11.15;6.95;;;;;;;;;;6260678;28;20060;-57
2023/03/25 18:33:56;;;;;;;7.90;4.45;;;;;;;;;;6255461;28;20059;-58